createdAt,value
2023-04-12T00:02:15.577Z,14.95
2023-04-12T00:05:18.805Z,15.68
2023-04-12T00:08:27.301Z,13.63
2023-04-12T00:11:32.912Z,15.00
2023-04-12T00:14:36.146Z,15.40
2023-04-12T00:17:39.332Z,13.80
2023-04-12T00:20:44.371Z,12.80
2023-04-12T00:23:48.099Z,13.13
2023-04-12T00:26:51.075Z,12.05
2023-04-12T00:29:54.531Z,10.68
2023-04-12T00:32:58.129Z,9.40
2023-04-12T00:36:02.777Z,10.70
2023-04-12T00:39:05.815Z,10.83
2023-04-12T00:42:09.288Z,9.85
2023-04-12T00:45:12.389Z,9.10
2023-04-12T00:48:19.568Z,8.77
2023-04-12T00:51:26.430Z,11.10
2023-04-12T00:54:34.990Z,11.47
2023-04-12T00:57:41.141Z,10.95
2023-04-12T01:00:50.878Z,10.73
2023-04-12T01:03:55.578Z,10.50
2023-04-12T01:07:18.119Z,10.40
2023-04-12T01:10:40.447Z,9.53
2023-04-12T01:13:55.647Z,10.38
2023-04-12T01:17:04.403Z,11.27
2023-04-12T01:20:17.641Z,10.85
2023-04-12T01:23:59.864Z,11.40
2023-04-12T01:27:04.349Z,11.27
2023-04-12T01:30:09.505Z,11.05
2023-04-12T01:33:14.084Z,11.68
2023-04-12T01:36:22.359Z,9.63
2023-04-12T01:39:25.934Z,11.52
2023-04-12T01:42:29.391Z,10.90
2023-04-12T01:45:33.978Z,10.65
2023-04-12T01:48:40.346Z,11.38
2023-04-12T01:52:20.341Z,10.07
2023-04-12T01:55:26.489Z,10.77
2023-04-12T01:58:31.058Z,12.20
2023-04-12T02:01:35.866Z,12.32
2023-04-12T02:04:39.782Z,12.48
2023-04-12T02:07:44.558Z,14.80
2023-04-12T02:10:48.066Z,10.13
2023-04-12T02:13:52.139Z,10.07
2023-04-12T02:16:56.149Z,8.63
2023-04-12T02:19:59.659Z,9.13
2023-04-12T02:23:03.587Z,8.10
2023-04-12T02:26:07.364Z,9.32
2023-04-12T02:29:11.165Z,9.20
2023-04-12T02:32:14.463Z,9.63
2023-04-12T02:35:19.251Z,8.70
2023-04-12T02:38:29.585Z,9.20
2023-04-12T02:41:37.635Z,8.25
2023-04-12T02:44:48.789Z,8.17
2023-04-12T02:47:52.524Z,7.03
2023-04-12T02:51:00.040Z,8.20
2023-04-12T02:54:06.448Z,8.55
2023-04-12T02:57:25.586Z,9.13
2023-04-12T03:00:29.879Z,8.30
2023-04-12T03:03:37.320Z,8.30
2023-04-12T03:06:56.167Z,7.70
2023-04-12T03:10:11.932Z,10.55
2023-04-12T03:13:31.719Z,8.20
2023-04-12T03:16:36.173Z,9.57
2023-04-12T03:19:46.977Z,6.78
2023-04-12T03:22:52.986Z,5.97
2023-04-12T03:25:56.802Z,6.63
2023-04-12T03:29:11.312Z,8.20
2023-04-12T03:32:17.274Z,7.77
2023-04-12T03:35:22.308Z,6.75
2023-04-12T03:38:28.130Z,6.00
2023-04-12T03:41:32.722Z,6.15
2023-04-12T03:44:40.140Z,6.10
2023-04-12T03:47:48.426Z,6.03
2023-04-12T03:50:55.223Z,4.53
2023-04-12T03:54:00.118Z,3.88
2023-04-12T03:57:04.376Z,3.60
2023-04-12T04:00:18.988Z,3.28
2023-04-12T04:03:43.831Z,2.83
2023-04-12T04:06:58.490Z,3.33
2023-04-12T04:10:06.115Z,2.28
2023-04-12T04:13:14.192Z,2.25
2023-04-12T04:16:18.768Z,2.63
2023-04-12T04:19:23.141Z,2.90
2023-04-12T04:22:27.433Z,2.58
2023-04-12T04:25:34.619Z,2.58
2023-04-12T04:28:45.684Z,2.65
2023-04-12T04:31:54.710Z,2.60
2023-04-12T04:35:01.932Z,4.37
2023-04-12T04:38:16.677Z,2.60
2023-04-12T04:41:23.618Z,1.95
2023-04-12T04:44:32.488Z,3.33
2023-04-12T04:47:37.619Z,2.28
2023-04-12T04:50:40.700Z,2.73
2023-04-12T04:53:44.660Z,2.45
2023-04-12T04:56:50.125Z,1.75
2023-04-12T04:59:55.520Z,2.08
2023-04-12T05:02:59.345Z,1.55
2023-04-12T05:06:05.351Z,1.93
2023-04-12T05:09:10.702Z,2.20
2023-04-12T05:12:20.397Z,2.40
2023-04-12T05:15:28.531Z,1.70
2023-04-12T05:18:32.012Z,1.98
2023-04-12T05:21:35.010Z,1.90
2023-04-12T05:24:39.202Z,1.88
2023-04-12T05:27:42.306Z,1.90
2023-04-12T05:30:50.446Z,2.50
2023-04-12T05:33:58.367Z,2.00
2023-04-12T05:37:09.000Z,1.90
2023-04-12T05:40:14.327Z,1.55
2023-04-12T05:43:19.144Z,2.20
2023-04-12T05:46:23.561Z,2.13
2023-04-12T05:49:32.233Z,2.20
2023-04-12T05:52:38.701Z,1.97
2023-04-12T05:55:44.418Z,2.03
2023-04-12T05:58:48.708Z,2.80
2023-04-12T06:01:52.435Z,2.00
2023-04-12T06:04:58.856Z,2.97
2023-04-12T06:08:06.408Z,2.80
2023-04-12T06:11:12.575Z,2.88
2023-04-12T06:14:18.739Z,2.90
2023-04-12T06:17:22.706Z,2.05
2023-04-12T06:20:26.517Z,2.20
2023-04-12T06:23:31.008Z,3.27
2023-04-12T06:26:39.817Z,3.22
2023-04-12T06:29:44.691Z,2.63
2023-04-12T06:32:48.432Z,2.78
2023-04-12T06:35:52.316Z,2.95
2023-04-12T06:38:56.215Z,3.00
2023-04-12T06:41:59.274Z,2.80
2023-04-12T06:45:03.153Z,2.60
2023-04-12T06:48:06.354Z,2.38
2023-04-12T06:51:12.349Z,2.65
2023-04-12T06:54:16.250Z,2.27
2023-04-12T06:57:19.551Z,4.15
2023-04-12T07:00:23.594Z,3.00
2023-04-12T07:03:29.456Z,2.55
2023-04-12T07:06:33.426Z,2.38
2023-04-12T07:09:37.973Z,3.20
2023-04-12T07:12:42.484Z,2.28
2023-04-12T07:15:48.056Z,2.63
2023-04-12T07:18:51.158Z,12.75
2023-04-12T07:21:54.668Z,3.40
2023-04-12T07:24:57.697Z,2.50
2023-04-12T07:28:01.763Z,3.20
2023-04-12T07:31:08.618Z,3.70
2023-04-12T07:34:12.945Z,2.97
2023-04-12T07:37:18.467Z,2.85
2023-04-12T07:40:21.862Z,19.47
2023-04-12T07:43:25.539Z,9.35
2023-04-12T07:46:29.059Z,31.30
2023-04-12T07:49:32.052Z,3.92
2023-04-12T07:52:35.494Z,2.55
2023-04-12T07:55:38.349Z,3.93
2023-04-12T07:58:41.911Z,3.50
2023-04-12T08:01:45.274Z,29.17
2023-04-12T08:04:48.667Z,10.32
2023-04-12T08:07:52.645Z,4.30
2023-04-12T08:10:56.230Z,2.50
2023-04-12T08:14:00.102Z,3.25
2023-04-12T08:17:04.232Z,3.47
2023-04-12T08:20:08.396Z,3.25
2023-04-12T08:23:12.901Z,2.70
2023-04-12T08:26:15.902Z,2.23
2023-04-12T08:29:20.163Z,2.22
2023-04-12T08:32:23.876Z,3.22
2023-04-12T08:35:27.514Z,2.40
2023-04-12T08:38:44.944Z,2.80
2023-04-12T08:41:50.555Z,3.80
2023-04-12T08:44:54.417Z,2.30
2023-04-12T08:47:59.097Z,2.33
2023-04-12T08:51:03.450Z,3.05
2023-04-12T08:54:06.616Z,2.63
2023-04-12T08:57:10.517Z,2.13
2023-04-12T09:00:15.179Z,2.50
2023-04-12T09:03:19.698Z,2.30
2023-04-12T09:06:22.870Z,2.58
2023-04-12T09:09:48.219Z,2.80
2023-04-12T09:12:52.887Z,2.50
2023-04-12T09:15:55.906Z,2.65
2023-04-12T09:19:03.526Z,2.60
2023-04-12T09:22:07.340Z,2.85
2023-04-12T09:25:11.365Z,2.65
2023-04-12T09:28:30.533Z,2.90
2023-04-12T09:31:33.729Z,3.65
2023-04-12T09:34:38.138Z,2.80
2023-04-12T09:37:41.335Z,2.90
2023-04-12T09:40:44.542Z,3.67
2023-04-12T09:43:47.581Z,3.57
2023-04-12T09:46:53.308Z,2.65
2023-04-12T09:49:56.415Z,3.13
2023-04-12T09:53:00.750Z,2.50
2023-04-12T09:56:08.962Z,2.22
2023-04-12T09:59:14.445Z,3.40
2023-04-12T10:02:26.497Z,4.38
2023-04-12T10:05:29.970Z,8.70
2023-04-12T10:08:38.745Z,10.52
2023-04-12T10:11:44.587Z,9.27
2023-04-12T10:14:48.642Z,8.23
2023-04-12T10:17:55.955Z,8.57
2023-04-12T10:20:59.105Z,2.85
2023-04-12T10:24:02.732Z,2.50
2023-04-12T10:27:06.807Z,2.38
2023-04-12T10:30:26.803Z,3.33
2023-04-12T10:33:32.219Z,1.70
2023-04-12T10:37:05.252Z,1.48
2023-04-12T10:40:20.257Z,1.45
2023-04-12T10:43:28.449Z,1.08
2023-04-12T10:46:41.392Z,2.50
2023-04-12T10:50:22.184Z,1.88
2023-04-12T10:53:26.221Z,2.25
2023-04-12T10:56:33.253Z,2.00
2023-04-12T10:59:57.589Z,1.60
2023-04-12T11:03:13.173Z,3.33
2023-04-12T11:06:27.204Z,2.78
2023-04-12T11:09:51.709Z,5.35
2023-04-12T11:13:09.329Z,6.25
2023-04-12T11:16:16.031Z,4.60
2023-04-12T11:19:20.397Z,7.87
2023-04-12T11:22:26.771Z,12.23
2023-04-12T11:25:30.486Z,12.15
2023-04-12T11:28:35.527Z,12.18
2023-04-12T11:31:40.349Z,15.38
2023-04-12T11:34:46.889Z,18.17
2023-04-12T11:37:50.972Z,15.32
2023-04-12T11:40:54.070Z,19.63
2023-04-12T11:43:58.463Z,29.65
2023-04-12T11:47:05.079Z,30.83
2023-04-12T11:50:10.158Z,28.13
2023-04-12T11:53:18.413Z,27.38
2023-04-12T11:56:23.303Z,29.27
2023-04-12T11:59:36.280Z,31.05
2023-04-12T12:02:46.608Z,34.38
2023-04-12T12:05:56.641Z,34.00
2023-04-12T12:09:01.788Z,39.40
2023-04-12T12:12:07.057Z,42.25
2023-04-12T12:15:10.800Z,41.50
2023-04-12T12:18:14.709Z,43.88
2023-04-12T12:21:19.783Z,76.33
2023-04-12T12:24:23.896Z,98.97
2023-04-12T12:27:38.544Z,94.47
2023-04-12T12:30:41.749Z,60.75
2023-04-12T12:33:47.037Z,59.22
2023-04-12T12:36:59.067Z,46.30
2023-04-12T12:40:14.493Z,22.50
2023-04-12T12:43:21.701Z,29.23
2023-04-12T12:46:31.463Z,41.85
2023-04-12T12:49:41.576Z,28.42
2023-04-12T12:52:47.474Z,32.07
2023-04-12T12:55:51.244Z,23.58
2023-04-12T12:58:55.390Z,26.40
2023-04-12T13:01:59.643Z,15.00
2023-04-12T13:05:07.066Z,13.13
2023-04-12T13:08:12.076Z,11.97
2023-04-12T13:11:17.186Z,11.23
2023-04-12T13:14:22.692Z,11.45
2023-04-12T13:17:26.715Z,10.75
2023-04-12T13:20:30.797Z,12.55
2023-04-12T13:23:38.214Z,25.30
2023-04-12T13:26:43.862Z,43.75
2023-04-12T13:29:48.212Z,40.33
2023-04-12T13:32:52.162Z,43.72
2023-04-12T13:35:56.666Z,45.88
2023-04-12T13:39:00.161Z,47.23
2023-04-12T13:42:06.994Z,54.58
2023-04-12T13:45:11.797Z,61.90
2023-04-12T13:48:15.114Z,58.13
2023-04-12T13:51:19.048Z,65.13
2023-04-12T13:54:22.782Z,65.83
2023-04-12T13:57:27.319Z,54.25
2023-04-12T14:00:30.504Z,51.63
2023-04-12T14:03:34.093Z,48.90
2023-04-12T14:06:37.967Z,47.83
2023-04-12T14:09:42.845Z,44.03
2023-04-12T14:12:46.581Z,39.38
2023-04-12T14:15:56.976Z,42.80
2023-04-12T14:19:00.305Z,37.03
2023-04-12T14:22:04.507Z,35.65
2023-04-12T14:25:08.939Z,34.20
2023-04-12T14:28:17.754Z,33.33
2023-04-12T14:31:21.025Z,28.92
2023-04-12T14:34:25.244Z,22.48
2023-04-12T14:37:28.566Z,15.20
2023-04-12T14:40:32.958Z,15.53
2023-04-12T14:43:36.021Z,11.85
2023-04-12T14:46:40.565Z,11.50
2023-04-12T14:49:43.911Z,8.93
2023-04-12T14:52:48.334Z,10.98
2023-04-12T14:55:52.778Z,15.97
2023-04-12T14:58:57.625Z,13.75
2023-04-12T15:02:00.909Z,14.70
2023-04-12T15:05:07.753Z,15.65
2023-04-12T15:08:11.197Z,17.25
2023-04-12T15:11:14.617Z,17.03
2023-04-12T15:14:20.918Z,16.58
2023-04-12T15:17:24.934Z,15.85
2023-04-12T15:20:28.116Z,22.15
2023-04-12T15:23:32.357Z,30.77
2023-04-12T15:26:39.311Z,32.97
2023-04-12T15:29:46.038Z,35.45
2023-04-12T15:32:49.532Z,33.97
2023-04-12T15:35:56.657Z,30.00
2023-04-12T15:38:59.744Z,32.42
2023-04-12T15:42:03.170Z,30.90
2023-04-12T15:45:07.278Z,33.92
2023-04-12T15:48:10.358Z,31.90
2023-04-12T15:51:14.513Z,32.05
2023-04-12T15:54:18.737Z,31.90
2023-04-12T15:57:24.321Z,26.27
2023-04-12T16:00:27.904Z,14.02
2023-04-12T16:03:32.243Z,20.08
2023-04-12T16:06:39.127Z,16.75
2023-04-12T16:09:43.038Z,34.08
2023-04-12T16:12:50.892Z,36.67
2023-04-12T16:15:54.089Z,38.92
2023-04-12T16:18:58.196Z,38.60
2023-04-12T16:22:03.791Z,36.63
2023-04-12T16:25:11.005Z,38.15
2023-04-12T16:28:15.200Z,35.07
2023-04-12T16:31:21.762Z,34.33
2023-04-12T16:34:25.948Z,38.88
2023-04-12T16:37:30.473Z,34.10
2023-04-12T16:40:34.549Z,29.50
2023-04-12T16:43:38.276Z,25.93
2023-04-12T16:46:42.480Z,24.13
2023-04-12T16:49:46.623Z,24.70
2023-04-12T16:52:50.666Z,24.52
2023-04-12T16:55:56.758Z,25.00
2023-04-12T16:59:02.049Z,24.37
2023-04-12T17:02:06.246Z,21.20
2023-04-12T17:05:10.706Z,18.42
2023-04-12T17:08:16.545Z,15.60
2023-04-12T17:11:19.769Z,14.48
2023-04-12T17:14:23.512Z,13.40
2023-04-12T17:17:28.352Z,12.38
2023-04-12T17:20:33.144Z,10.93
2023-04-12T17:23:37.951Z,10.00
2023-04-12T17:26:42.578Z,11.75
2023-04-12T17:29:46.582Z,11.13
2023-04-12T17:32:52.377Z,11.88
2023-04-12T17:35:55.677Z,10.00
2023-04-12T17:39:01.836Z,7.85
2023-04-12T17:42:05.579Z,5.75
2023-04-12T17:45:13.005Z,7.97
2023-04-12T17:48:16.831Z,8.65
2023-04-12T17:51:19.936Z,9.52
2023-04-12T17:54:22.995Z,10.07
2023-04-12T17:57:27.984Z,9.65
2023-04-12T18:00:31.921Z,9.30
2023-04-12T18:03:36.336Z,8.85
2023-04-12T18:06:40.568Z,11.20
2023-04-12T18:09:46.432Z,11.88
2023-04-12T18:12:50.858Z,14.63
2023-04-12T18:15:54.761Z,15.07
2023-04-12T18:19:00.231Z,13.85
2023-04-12T18:22:03.890Z,13.18
2023-04-12T18:25:12.174Z,12.65
2023-04-12T18:28:16.336Z,12.40
2023-04-12T18:31:20.345Z,13.33
2023-04-12T18:34:24.079Z,13.35
2023-04-12T18:37:28.554Z,13.23
2023-04-12T18:40:32.545Z,13.82
2023-04-12T18:43:36.640Z,14.18
2023-04-12T18:46:43.075Z,14.17
2023-04-12T18:49:46.897Z,14.68
2023-04-12T18:52:50.818Z,15.82
2023-04-12T18:55:54.110Z,16.83
2023-04-12T18:58:57.890Z,16.85
2023-04-12T19:02:01.090Z,20.07
2023-04-12T19:05:06.345Z,20.58
2023-04-12T19:08:10.784Z,19.52
2023-04-12T19:11:13.878Z,18.25
2023-04-12T19:14:18.054Z,20.25
2023-04-12T19:17:28.422Z,16.87
2023-04-12T19:20:31.505Z,18.58
2023-04-12T19:23:36.677Z,18.10
2023-04-12T19:26:50.198Z,18.20
2023-04-12T19:29:54.481Z,19.15
2023-04-12T19:32:59.374Z,16.60
2023-04-12T19:36:03.175Z,14.73
2023-04-12T19:39:06.216Z,13.85
2023-04-12T19:42:10.100Z,13.45
2023-04-12T19:45:14.007Z,14.07
2023-04-12T19:48:17.575Z,14.17
2023-04-12T19:51:21.439Z,13.35
2023-04-12T19:54:26.187Z,14.68
2023-04-12T19:57:29.872Z,16.75
2023-04-12T20:00:33.073Z,15.02
2023-04-12T20:03:38.125Z,17.27
2023-04-12T20:06:42.391Z,18.02
2023-04-12T20:09:45.716Z,21.15
2023-04-12T20:12:49.707Z,23.83
2023-04-12T20:15:53.345Z,24.83
2023-04-12T20:18:59.378Z,22.77
2023-04-12T20:22:03.910Z,23.42
2023-04-12T20:25:10.423Z,20.65
2023-04-12T20:28:14.117Z,20.38
2023-04-12T20:31:18.171Z,18.15
2023-04-12T20:34:21.699Z,17.70
2023-04-12T20:37:25.277Z,16.13
2023-04-12T20:40:30.412Z,16.15
2023-04-12T20:43:35.685Z,13.68
2023-04-12T20:46:39.137Z,14.57
2023-04-12T20:49:43.369Z,14.33
2023-04-12T20:52:48.811Z,14.68
2023-04-12T20:55:54.110Z,14.25
2023-04-12T20:58:58.085Z,15.10
2023-04-12T21:02:01.366Z,15.50
2023-04-12T21:05:05.256Z,15.63
2023-04-12T21:08:09.141Z,16.75
2023-04-12T21:11:12.162Z,14.38
2023-04-12T21:14:15.786Z,17.15
2023-04-12T21:17:22.913Z,30.65
2023-04-12T21:20:27.274Z,27.03
2023-04-12T21:23:31.170Z,22.15
2023-04-12T21:26:35.468Z,20.25
2023-04-12T21:29:41.781Z,20.27
2023-04-12T21:32:45.686Z,19.38
2023-04-12T21:35:48.700Z,19.17
2023-04-12T21:38:52.026Z,20.55
2023-04-12T21:41:58.589Z,23.00
2023-04-12T21:45:02.304Z,24.30
2023-04-12T21:48:06.496Z,24.45
2023-04-12T21:51:10.206Z,22.60
2023-04-12T21:54:14.135Z,28.17
2023-04-12T21:57:17.953Z,26.02
2023-04-12T22:00:21.480Z,20.48
2023-04-12T22:03:25.663Z,20.23
2023-04-12T22:06:29.091Z,19.00
2023-04-12T22:09:34.217Z,19.05
2023-04-12T22:12:38.062Z,20.98
2023-04-12T22:15:42.702Z,24.05
2023-04-12T22:18:48.573Z,24.00
2023-04-12T22:21:52.881Z,24.13
2023-04-12T22:24:56.144Z,24.60
2023-04-12T22:27:59.230Z,59.60
2023-04-12T22:31:03.888Z,29.40
2023-04-12T22:34:07.006Z,24.15
2023-04-12T22:37:10.113Z,24.67
2023-04-12T22:40:14.240Z,24.02
2023-04-12T22:43:21.898Z,23.02
2023-04-12T22:46:25.150Z,25.27
2023-04-12T22:49:29.409Z,26.30
2023-04-12T22:52:32.376Z,22.73
2023-04-12T22:55:37.690Z,17.40
2023-04-12T22:58:41.172Z,15.88
2023-04-12T23:01:46.606Z,13.90
2023-04-12T23:04:49.818Z,15.60
2023-04-12T23:07:54.039Z,15.97
2023-04-12T23:11:02.485Z,15.07
2023-04-12T23:14:07.776Z,19.30
2023-04-12T23:17:11.478Z,18.70
2023-04-12T23:20:15.798Z,17.60
2023-04-12T23:23:19.239Z,15.63
2023-04-12T23:26:22.858Z,14.95
2023-04-12T23:29:26.268Z,14.63
2023-04-12T23:32:30.252Z,16.55
2023-04-12T23:35:37.652Z,16.23
2023-04-12T23:38:44.800Z,16.07
2023-04-12T23:41:48.148Z,14.55
2023-04-12T23:44:52.472Z,15.05
2023-04-12T23:47:56.534Z,11.82
2023-04-12T23:51:01.532Z,12.88
2023-04-12T23:54:05.323Z,9.73
2023-04-12T23:57:09.062Z,12.48
